createdAt,value
2018-12-23T00:00:58.966Z,7.77
2018-12-23T00:03:26.390Z,7.33
2018-12-23T00:05:53.831Z,7.67
2018-12-23T00:08:21.269Z,6.90
2018-12-23T00:10:48.691Z,7.70
2018-12-23T00:13:16.111Z,6.57
2018-12-23T00:15:43.553Z,7.20
2018-12-23T00:18:10.975Z,6.47
2018-12-23T00:20:38.397Z,7.33
2018-12-23T00:23:05.939Z,6.60
2018-12-23T00:25:33.769Z,6.77
2018-12-23T00:28:01.177Z,6.60
2018-12-23T00:30:28.678Z,5.80
2018-12-23T00:32:56.113Z,6.43
2018-12-23T00:35:23.551Z,7.20
2018-12-23T00:37:50.994Z,7.00
2018-12-23T00:40:18.419Z,7.63
2018-12-23T00:42:45.842Z,7.90
2018-12-23T00:45:13.255Z,8.47
2018-12-23T00:47:40.685Z,8.13
2018-12-23T00:50:08.207Z,7.47
2018-12-23T00:52:35.649Z,7.77
2018-12-23T00:55:03.133Z,8.17
2018-12-23T00:57:30.648Z,7.30
2018-12-23T00:59:58.075Z,8.13
2018-12-23T01:02:25.611Z,8.50
2018-12-23T01:04:53.104Z,8.80
2018-12-23T01:07:20.622Z,7.57
2018-12-23T01:09:48.042Z,7.77
2018-12-23T01:12:15.489Z,7.73
2018-12-23T01:14:42.990Z,7.60
2018-12-23T01:17:10.491Z,8.07
2018-12-23T01:19:37.975Z,7.17
2018-12-23T01:22:05.418Z,8.00
2018-12-23T01:24:32.861Z,8.03
2018-12-23T01:27:00.280Z,7.33
2018-12-23T01:29:27.783Z,7.57
2018-12-23T01:31:55.823Z,8.20
2018-12-23T01:34:23.236Z,8.63
2018-12-23T01:36:50.670Z,8.73
2018-12-23T01:39:18.119Z,8.83
2018-12-23T01:41:45.543Z,8.17
2018-12-23T01:44:13.082Z,8.67
2018-12-23T01:46:40.507Z,9.43
2018-12-23T01:49:07.939Z,8.93
2018-12-23T01:51:35.369Z,8.53
2018-12-23T01:54:02.835Z,9.70
2018-12-23T01:56:30.340Z,9.70
2018-12-23T01:58:57.771Z,9.63
2018-12-23T02:01:25.239Z,8.97
2018-12-23T02:03:52.669Z,9.03
2018-12-23T02:06:20.090Z,9.17
2018-12-23T02:08:47.510Z,8.80
2018-12-23T02:11:14.936Z,8.80
2018-12-23T02:13:42.379Z,8.60
2018-12-23T02:16:09.797Z,8.90
2018-12-23T02:18:37.227Z,8.30
2018-12-23T02:21:04.748Z,7.67
2018-12-23T02:23:32.167Z,8.93
2018-12-23T02:25:59.598Z,8.73
2018-12-23T02:28:27.027Z,8.90
2018-12-23T02:30:54.440Z,9.53
2018-12-23T02:33:22.028Z,9.40
2018-12-23T02:35:55.388Z,10.60
2018-12-23T02:38:18.998Z,10.10
2018-12-23T02:40:46.499Z,10.10
2018-12-23T02:43:13.990Z,9.93
2018-12-23T02:45:41.580Z,11.47
2018-12-23T02:48:09.087Z,10.03
2018-12-23T02:50:36.524Z,10.93
2018-12-23T02:53:03.996Z,11.27
2018-12-23T02:55:31.572Z,10.60
2018-12-23T02:57:58.991Z,11.30
2018-12-23T03:00:26.477Z,11.50
2018-12-23T03:02:53.949Z,12.00
2018-12-23T03:05:21.447Z,11.80
2018-12-23T03:07:48.878Z,12.53
2018-12-23T03:10:16.300Z,13.00
2018-12-23T03:12:43.748Z,13.23
2018-12-23T03:15:11.307Z,13.67
2018-12-23T03:17:38.759Z,14.13
2018-12-23T03:20:06.468Z,13.57
2018-12-23T03:22:33.955Z,12.57
2018-12-23T03:25:01.380Z,13.17
2018-12-23T03:27:28.897Z,13.73
2018-12-23T03:29:56.324Z,13.33
2018-12-23T03:32:23.868Z,13.60
2018-12-23T03:34:51.386Z,13.30
2018-12-23T03:37:18.822Z,14.10
2018-12-23T03:39:46.315Z,13.67
2018-12-23T03:42:14.637Z,14.63
2018-12-23T03:44:42.059Z,12.90
2018-12-23T03:47:09.505Z,13.23
2018-12-23T03:49:36.945Z,13.60
2018-12-23T03:52:04.383Z,13.37
2018-12-23T03:54:31.895Z,12.33
2018-12-23T03:56:59.428Z,12.20
2018-12-23T03:59:26.928Z,13.67
2018-12-23T04:01:54.364Z,13.03
2018-12-23T04:04:21.792Z,12.67
2018-12-23T04:06:49.364Z,13.13
2018-12-23T04:09:16.843Z,14.10
2018-12-23T04:11:44.282Z,14.83
2018-12-23T04:14:11.772Z,14.10
2018-12-23T04:16:39.287Z,15.40
2018-12-23T04:19:06.735Z,16.60
2018-12-23T04:21:34.222Z,15.13
2018-12-23T04:24:01.721Z,15.27
2018-12-23T04:26:29.235Z,16.17
2018-12-23T04:28:56.735Z,14.70
2018-12-23T04:31:24.147Z,15.80
2018-12-23T04:33:51.611Z,15.90
2018-12-23T04:36:19.074Z,16.80
2018-12-23T04:38:46.518Z,15.60
2018-12-23T04:41:14.099Z,16.40
2018-12-23T04:43:41.523Z,15.57
2018-12-23T04:46:08.944Z,15.40
2018-12-23T04:48:36.474Z,15.87
2018-12-23T04:51:03.997Z,16.60
2018-12-23T04:53:31.494Z,16.83
2018-12-23T04:55:59.049Z,17.87
2018-12-23T04:58:26.555Z,16.13
2018-12-23T05:00:54.006Z,16.67
2018-12-23T05:03:21.441Z,17.13
2018-12-23T05:05:48.868Z,16.50
2018-12-23T05:08:16.385Z,16.30
2018-12-23T05:10:43.893Z,15.57
2018-12-23T05:13:11.391Z,17.87
2018-12-23T05:15:38.808Z,16.07
2018-12-23T05:18:06.324Z,15.17
2018-12-23T05:20:33.782Z,15.43
2018-12-23T05:23:01.278Z,15.40
2018-12-23T05:25:28.712Z,16.43
2018-12-23T05:27:56.160Z,14.83
2018-12-23T05:30:23.654Z,14.57
2018-12-23T05:32:51.206Z,15.47
2018-12-23T05:35:18.718Z,15.37
2018-12-23T05:37:46.209Z,15.17
2018-12-23T05:40:13.717Z,15.73
2018-12-23T05:42:41.179Z,16.03
2018-12-23T05:45:08.637Z,14.23
2018-12-23T05:47:36.131Z,15.60
2018-12-23T05:50:03.764Z,15.93
2018-12-23T05:52:31.195Z,15.53
2018-12-23T05:54:58.729Z,15.80
2018-12-23T05:57:26.237Z,15.83
2018-12-23T05:59:53.678Z,15.47
2018-12-23T06:02:21.142Z,15.10
2018-12-23T06:04:48.574Z,15.10
2018-12-23T06:07:16.002Z,15.23
2018-12-23T06:09:43.424Z,16.30
2018-12-23T06:12:10.847Z,14.80
2018-12-23T06:14:38.263Z,15.57
2018-12-23T06:17:05.689Z,15.27
2018-12-23T06:19:33.192Z,15.47
2018-12-23T06:22:00.661Z,14.87
2018-12-23T06:24:28.092Z,13.70
2018-12-23T06:26:55.620Z,13.57
2018-12-23T06:29:23.034Z,13.70
2018-12-23T06:31:50.460Z,12.60
2018-12-23T06:34:17.936Z,13.37
2018-12-23T06:36:45.446Z,12.80
2018-12-23T06:39:12.944Z,13.03
2018-12-23T06:41:40.447Z,12.70
2018-12-23T06:44:07.872Z,11.00
2018-12-23T06:46:35.302Z,11.47
2018-12-23T06:49:02.734Z,11.67
2018-12-23T06:51:30.154Z,11.20
2018-12-23T06:53:57.791Z,10.60
2018-12-23T06:56:25.228Z,10.30
2018-12-23T06:58:52.653Z,10.60
2018-12-23T07:01:20.091Z,10.50
2018-12-23T07:03:47.519Z,10.47
2018-12-23T07:06:14.993Z,10.00
2018-12-23T07:08:42.438Z,9.83
2018-12-23T07:11:09.862Z,9.30
2018-12-23T07:13:37.434Z,9.60
2018-12-23T07:16:04.928Z,9.30
2018-12-23T07:18:32.357Z,9.53
2018-12-23T07:20:59.842Z,9.87
2018-12-23T07:23:27.284Z,9.40
2018-12-23T07:25:54.819Z,9.17
2018-12-23T07:28:22.435Z,9.83
2018-12-23T07:30:49.851Z,9.93
2018-12-23T07:33:17.457Z,9.00
2018-12-23T07:35:44.898Z,9.33
2018-12-23T07:38:12.332Z,9.37
2018-12-23T07:40:39.848Z,10.10
2018-12-23T07:43:07.290Z,8.57
2018-12-23T07:45:38.011Z,10.30
2018-12-23T07:48:05.443Z,10.23
2018-12-23T07:50:32.868Z,9.43
2018-12-23T07:53:00.283Z,9.77
2018-12-23T07:55:27.702Z,9.60
2018-12-23T07:57:55.212Z,9.77
2018-12-23T08:00:22.640Z,9.50
2018-12-23T08:02:50.059Z,9.67
2018-12-23T08:05:17.825Z,10.17
2018-12-23T08:07:45.436Z,10.70
2018-12-23T08:10:12.851Z,10.03
2018-12-23T08:12:40.267Z,10.93
2018-12-23T08:15:07.683Z,9.03
2018-12-23T08:17:35.123Z,9.63
2018-12-23T08:20:02.592Z,10.17
2018-12-23T08:22:30.090Z,9.67
2018-12-23T08:28:31.549Z,10.03
2018-12-23T08:31:00.058Z,8.90
2018-12-23T08:33:28.566Z,9.17
2018-12-23T08:35:58.646Z,9.23
2018-12-23T08:38:28.564Z,8.77
2018-12-23T08:40:57.074Z,9.33
2018-12-23T08:43:25.580Z,8.93
2018-12-23T08:45:55.508Z,10.13
2018-12-23T08:48:28.464Z,9.47
2018-12-23T08:51:08.575Z,9.87
2018-12-23T08:54:12.062Z,9.53
2018-12-23T08:56:43.412Z,9.57
2018-12-23T09:04:30.763Z,9.97
2018-12-23T09:07:21.674Z,10.23
2018-12-23T09:09:50.279Z,10.47
2018-12-23T09:12:18.772Z,9.97
2018-12-23T09:14:47.373Z,10.53
2018-12-23T09:19:53.284Z,10.27
2018-12-23T09:22:21.795Z,9.30
2018-12-23T09:24:50.285Z,9.50
2018-12-23T09:27:18.806Z,9.70
2018-12-23T09:29:47.583Z,10.80
2018-12-23T09:32:16.088Z,9.57
2018-12-23T09:34:46.170Z,9.80
2018-12-23T09:37:14.660Z,10.00
2018-12-23T09:39:43.184Z,9.87
2018-12-23T09:42:11.704Z,8.87
2018-12-23T09:44:40.196Z,9.20
2018-12-23T09:47:11.657Z,9.07
2018-12-23T09:49:40.187Z,8.70
2018-12-23T09:52:08.689Z,8.47
2018-12-23T09:54:37.204Z,7.87
2018-12-23T09:57:05.738Z,8.67
2018-12-23T09:59:35.784Z,7.87
2018-12-23T10:02:04.304Z,8.23
2018-12-23T10:04:32.859Z,7.73
2018-12-23T10:07:01.356Z,7.30
2018-12-23T10:09:29.876Z,6.90
2018-12-23T10:11:58.385Z,6.90
2018-12-23T10:14:26.902Z,7.17
2018-12-23T10:16:55.446Z,6.50
2018-12-23T10:19:23.935Z,5.97
2018-12-23T10:21:52.436Z,5.60
2018-12-23T10:24:20.966Z,5.40
2018-12-23T10:26:49.478Z,5.00
2018-12-23T10:29:17.992Z,4.67
2018-12-23T10:31:46.493Z,5.00
2018-12-23T10:34:14.997Z,5.10
2018-12-23T10:36:43.522Z,4.97
2018-12-23T10:39:12.020Z,5.87
2018-12-23T10:41:40.516Z,4.73
2018-12-23T10:44:09.033Z,5.83
2018-12-23T10:46:37.540Z,5.27
2018-12-23T10:49:06.047Z,5.37
2018-12-23T10:51:34.554Z,5.00
2018-12-23T10:54:03.067Z,5.10
2018-12-23T10:56:31.576Z,5.60
2018-12-23T10:59:00.068Z,4.90
2018-12-23T11:01:28.581Z,5.30
2018-12-23T11:03:57.124Z,5.07
2018-12-23T11:06:25.631Z,4.63
2018-12-23T11:08:54.186Z,5.03
2018-12-23T11:11:22.713Z,4.97
2018-12-23T11:13:51.260Z,5.43
2018-12-23T11:16:19.760Z,4.87
2018-12-23T11:18:48.285Z,4.80
2018-12-23T11:21:16.867Z,4.40
2018-12-23T11:23:45.403Z,4.90
2018-12-23T11:26:13.947Z,4.80
2018-12-23T11:28:42.444Z,5.03
2018-12-23T11:31:10.971Z,5.33
2018-12-23T11:33:39.535Z,5.47
2018-12-23T11:36:09.831Z,5.17
2018-12-23T11:38:38.339Z,5.43
2018-12-23T11:41:06.853Z,5.23
2018-12-23T11:43:35.386Z,5.77
2018-12-23T11:46:03.884Z,5.70
2018-12-23T11:48:32.397Z,5.50
2018-12-23T11:51:00.896Z,4.87
2018-12-23T11:53:29.415Z,5.03
2018-12-23T11:55:57.917Z,5.93
2018-12-23T11:58:26.411Z,5.60
2018-12-23T12:00:54.934Z,5.83
